createdAt,value
2022-11-18T00:01:19.878Z,6.98
2022-11-18T00:03:48.439Z,6.88
2022-11-18T00:06:20.690Z,6.94
2022-11-18T00:08:48.591Z,6.97
2022-11-18T00:11:39.351Z,6.92
2022-11-18T00:14:21.467Z,6.88
2022-11-18T00:17:01.572Z,6.79
2022-11-18T00:19:39.025Z,6.81
2022-11-18T00:22:07.948Z,6.81
2022-11-18T00:24:35.705Z,6.80
2022-11-18T00:27:03.428Z,6.82
2022-11-18T00:29:31.752Z,6.65
2022-11-18T00:31:59.570Z,6.79
2022-11-18T00:34:27.145Z,6.79
2022-11-18T00:36:54.679Z,6.80
2022-11-18T00:39:22.997Z,6.76
2022-11-18T00:42:09.019Z,6.85
2022-11-18T00:44:37.035Z,6.87
2022-11-18T00:47:05.108Z,6.89
2022-11-18T00:49:32.654Z,6.90
2022-11-18T00:52:01.426Z,6.85
2022-11-18T00:54:28.976Z,6.79
2022-11-18T00:56:56.533Z,6.83
2022-11-18T00:59:24.338Z,6.84
2022-11-18T01:01:51.913Z,6.86
2022-11-18T01:04:19.629Z,6.79
2022-11-18T01:06:47.492Z,6.81
2022-11-18T01:09:15.311Z,6.87
2022-11-18T01:12:01.675Z,6.92
2022-11-18T01:14:29.574Z,6.96
2022-11-18T01:16:57.482Z,6.92
2022-11-18T01:19:25.234Z,6.94
2022-11-18T01:21:53.459Z,6.82
2022-11-18T01:24:21.754Z,6.84
2022-11-18T01:26:49.337Z,6.86
2022-11-18T01:29:17.598Z,6.73
2022-11-18T01:32:01.925Z,6.74
2022-11-18T01:34:32.983Z,6.64
2022-11-18T01:37:00.492Z,6.69
2022-11-18T01:39:27.919Z,6.68
2022-11-18T01:41:55.584Z,6.65
2022-11-18T01:44:53.938Z,6.62
2022-11-18T01:47:21.817Z,6.52
2022-11-18T01:49:49.334Z,6.51
2022-11-18T01:52:16.822Z,6.55
2022-11-18T01:54:48.260Z,6.49
2022-11-18T01:57:19.673Z,6.63
2022-11-18T01:59:49.551Z,6.76
2022-11-18T02:02:17.285Z,6.77
2022-11-18T02:04:48.692Z,6.82
2022-11-18T02:07:16.809Z,6.77
2022-11-18T02:09:44.547Z,6.82
2022-11-18T02:12:12.207Z,6.81
2022-11-18T02:14:43.843Z,6.78
2022-11-18T02:17:29.696Z,6.85
2022-11-18T02:20:09.404Z,6.94
2022-11-18T02:22:36.940Z,7.00
2022-11-18T02:25:42.266Z,7.07
2022-11-18T02:28:37.411Z,7.14
2022-11-18T02:31:24.990Z,7.21
2022-11-18T02:34:01.563Z,7.28
2022-11-18T02:36:39.189Z,7.32
2022-11-18T02:39:14.898Z,7.34
2022-11-18T02:41:44.540Z,7.17
2022-11-18T02:44:15.582Z,7.22
2022-11-18T02:46:46.524Z,7.30
2022-11-18T02:49:21.249Z,7.36
2022-11-18T02:51:50.268Z,7.31
2022-11-18T02:54:18.751Z,7.46
2022-11-18T02:56:47.074Z,7.47
2022-11-18T02:59:18.699Z,7.47
2022-11-18T03:01:47.247Z,7.48
2022-11-18T03:04:17.095Z,7.52
2022-11-18T03:07:01.162Z,7.55
2022-11-18T03:09:35.501Z,7.57
2022-11-18T03:12:24.557Z,7.60
2022-11-18T03:15:07.214Z,7.45
2022-11-18T03:17:46.986Z,7.40
2022-11-18T03:20:30.864Z,7.49
2022-11-18T03:23:06.454Z,7.49
2022-11-18T03:25:45.460Z,7.42
2022-11-18T03:28:12.907Z,7.47
2022-11-18T03:30:47.788Z,7.46
2022-11-18T03:33:19.846Z,7.46
2022-11-18T03:35:49.705Z,7.42
2022-11-18T03:38:29.688Z,7.46
2022-11-18T03:41:03.759Z,7.34
2022-11-18T03:43:35.789Z,7.39
2022-11-18T03:46:23.292Z,7.40
2022-11-18T03:48:55.693Z,7.36
2022-11-18T03:51:34.034Z,7.36
2022-11-18T03:54:11.217Z,7.29
2022-11-18T03:56:43.906Z,7.29
2022-11-18T03:59:33.736Z,7.30
2022-11-18T04:02:28.045Z,7.00
2022-11-18T04:04:57.344Z,7.00
2022-11-18T04:07:33.612Z,7.05
2022-11-18T04:10:11.900Z,6.87
2022-11-18T04:12:48.870Z,6.91
2022-11-18T04:15:16.732Z,6.67
2022-11-18T04:17:44.771Z,6.90
2022-11-18T04:20:16.004Z,6.94
2022-11-18T04:22:43.763Z,6.90
2022-11-18T04:25:11.802Z,6.82
2022-11-18T04:27:39.325Z,6.87
2022-11-18T04:30:07.866Z,6.80
2022-11-18T04:32:35.524Z,6.91
2022-11-18T04:35:03.589Z,6.80
2022-11-18T04:37:31.397Z,6.73
2022-11-18T04:39:58.858Z,6.92
2022-11-18T04:42:26.499Z,7.02
2022-11-18T04:44:54.226Z,7.04
2022-11-18T04:47:21.692Z,7.06
2022-11-18T04:49:49.229Z,7.05
2022-11-18T04:52:17.063Z,7.01
2022-11-18T04:54:44.792Z,7.04
2022-11-18T04:57:12.751Z,6.98
2022-11-18T04:59:40.785Z,7.03
2022-11-18T05:02:08.458Z,7.05
2022-11-18T05:04:36.079Z,7.05
2022-11-18T05:07:04.916Z,7.08
2022-11-18T05:09:32.656Z,7.12
2022-11-18T05:12:19.263Z,7.14
2022-11-18T05:14:50.572Z,7.13
2022-11-18T05:17:19.157Z,7.13
2022-11-18T05:19:46.988Z,7.11
2022-11-18T05:22:15.156Z,7.08
2022-11-18T05:24:42.569Z,7.04
2022-11-18T05:27:11.312Z,7.02
2022-11-18T05:29:38.938Z,6.92
2022-11-18T05:32:06.423Z,7.03
2022-11-18T05:34:34.205Z,7.04
2022-11-18T05:37:01.635Z,7.04
2022-11-18T05:39:29.116Z,7.04
2022-11-18T05:42:17.071Z,7.03
2022-11-18T05:44:44.768Z,6.82
2022-11-18T05:47:12.703Z,6.88
2022-11-18T05:49:40.236Z,6.98
2022-11-18T05:52:07.855Z,6.88
2022-11-18T05:54:39.222Z,6.89
2022-11-18T05:57:06.657Z,6.92
2022-11-18T05:59:34.216Z,6.84
2022-11-18T06:02:13.553Z,6.56
2022-11-18T06:05:08.053Z,6.82
2022-11-18T06:07:42.237Z,6.75
2022-11-18T06:10:16.685Z,6.76
2022-11-18T06:12:45.982Z,7.57
2022-11-18T06:15:21.995Z,8.01
2022-11-18T06:18:03.635Z,7.80
2022-11-18T06:20:34.295Z,7.72
2022-11-18T06:23:02.142Z,7.72
2022-11-18T06:25:30.217Z,8.08
2022-11-18T06:27:59.748Z,7.58
2022-11-18T06:30:27.393Z,7.49
2022-11-18T06:32:54.867Z,7.15
2022-11-18T06:35:22.901Z,7.08
2022-11-18T06:37:50.568Z,7.28
2022-11-18T06:40:18.151Z,7.36
2022-11-18T06:43:04.939Z,7.40
2022-11-18T06:45:32.677Z,7.43
2022-11-18T06:48:05.474Z,7.39
2022-11-18T06:50:33.042Z,7.50
2022-11-18T06:53:01.552Z,7.49
2022-11-18T06:55:29.030Z,7.51
2022-11-18T06:57:57.084Z,7.49
2022-11-18T07:00:25.151Z,7.38
2022-11-18T07:02:52.651Z,7.46
2022-11-18T07:05:20.276Z,7.44
2022-11-18T07:07:48.981Z,7.35
2022-11-18T07:10:17.146Z,7.47
2022-11-18T07:12:44.652Z,7.43
2022-11-18T07:15:12.667Z,7.44
2022-11-18T07:17:40.191Z,7.44
2022-11-18T07:20:08.239Z,7.48
2022-11-18T07:22:36.324Z,7.49
2022-11-18T07:25:04.013Z,7.52
2022-11-18T07:27:31.695Z,7.50
2022-11-18T07:29:59.596Z,7.52
2022-11-18T07:32:27.079Z,7.51
2022-11-18T07:34:54.679Z,7.50
2022-11-18T07:37:22.526Z,7.46
2022-11-18T07:39:50.097Z,7.44
2022-11-18T07:42:17.640Z,7.46
2022-11-18T07:44:45.525Z,7.41
2022-11-18T07:47:15.967Z,7.35
2022-11-18T07:49:43.462Z,7.45
2022-11-18T07:52:11.342Z,7.44
2022-11-18T07:54:38.963Z,7.38
2022-11-18T07:57:06.619Z,7.50
2022-11-18T07:59:34.494Z,7.51
2022-11-18T08:02:02.050Z,7.50
2022-11-18T08:04:29.925Z,7.51
2022-11-18T08:06:57.527Z,7.39
2022-11-18T08:09:25.169Z,7.48
2022-11-18T08:11:53.015Z,7.52
2022-11-18T08:14:22.124Z,7.57
2022-11-18T08:16:50.041Z,7.54
2022-11-18T08:19:18.185Z,7.56
2022-11-18T08:21:45.881Z,7.47
2022-11-18T08:24:13.414Z,7.52
2022-11-18T08:26:41.186Z,7.58
2022-11-18T08:29:08.790Z,7.59
2022-11-18T08:31:36.378Z,7.58
2022-11-18T08:34:06.779Z,7.42
2022-11-18T08:36:36.382Z,7.51
2022-11-18T08:39:06.437Z,7.41
2022-11-18T08:41:39.261Z,7.57
2022-11-18T08:44:08.067Z,7.59
2022-11-18T08:46:35.657Z,7.59
2022-11-18T08:49:03.393Z,7.61
2022-11-18T08:51:31.205Z,7.69
2022-11-18T08:53:59.045Z,7.70
2022-11-18T08:56:26.501Z,7.64
2022-11-18T08:58:54.741Z,7.73
2022-11-18T09:01:22.457Z,7.66
2022-11-18T09:03:50.329Z,7.69
2022-11-18T09:06:22.956Z,7.73
2022-11-18T09:08:50.607Z,7.79
2022-11-18T09:11:21.152Z,7.72
2022-11-18T09:16:40.487Z,7.86
2022-11-18T09:19:39.651Z,7.86
2022-11-18T09:21:56.985Z,7.84
2022-11-18T09:24:24.626Z,7.87
2022-11-18T09:26:53.763Z,7.81
2022-11-18T09:29:26.657Z,7.95
2022-11-18T09:31:54.668Z,7.98
2022-11-18T09:34:23.031Z,8.03
2022-11-18T09:36:51.203Z,8.00
2022-11-18T09:39:20.638Z,8.05
2022-11-18T09:42:21.240Z,8.12
2022-11-18T09:45:13.514Z,8.17
2022-11-18T09:47:43.208Z,8.24
2022-11-18T09:53:18.155Z,8.29
2022-11-18T09:55:46.085Z,8.30
2022-11-18T09:58:18.975Z,8.34
2022-11-18T10:00:46.868Z,8.36
2022-11-18T10:03:29.520Z,8.39
2022-11-18T10:06:11.977Z,8.44
2022-11-18T10:09:06.260Z,8.51
2022-11-18T10:12:26.659Z,8.50
2022-11-18T10:15:27.172Z,8.54
2022-11-18T10:18:06.225Z,8.60
2022-11-18T10:21:00.259Z,8.63
2022-11-18T10:24:04.146Z,8.68
2022-11-18T10:26:36.793Z,8.72
2022-11-18T10:29:09.780Z,8.63
2022-11-18T10:32:01.179Z,8.79
2022-11-18T10:34:32.703Z,8.88
2022-11-18T10:37:00.397Z,8.91
2022-11-18T10:39:28.275Z,8.86
2022-11-18T10:42:05.680Z,8.82
2022-11-18T10:44:33.400Z,8.95
2022-11-18T10:47:23.278Z,8.97
2022-11-18T10:49:52.851Z,8.94
2022-11-18T10:52:20.475Z,9.04
2022-11-18T10:55:07.151Z,9.09
2022-11-18T10:57:39.184Z,9.15
2022-11-18T11:00:28.260Z,9.19
2022-11-18T11:03:00.366Z,9.26
2022-11-18T11:05:28.394Z,9.30
2022-11-18T11:08:37.279Z,9.32
2022-11-18T11:11:05.232Z,9.54
2022-11-18T11:13:38.229Z,9.71
2022-11-18T11:16:07.108Z,9.65
2022-11-18T11:18:42.616Z,9.65
2022-11-18T11:21:13.358Z,9.54
2022-11-18T11:23:41.891Z,9.40
2022-11-18T11:29:30.101Z,9.38
2022-11-18T11:32:10.065Z,9.35
2022-11-18T11:34:53.013Z,9.33
2022-11-18T11:37:38.916Z,9.26
2022-11-18T11:40:29.493Z,9.28
2022-11-18T11:43:21.878Z,9.23
2022-11-18T11:45:55.571Z,9.27
2022-11-18T11:48:38.462Z,9.15
2022-11-18T11:51:15.286Z,9.07
2022-11-18T11:53:51.806Z,9.15
2022-11-18T11:56:39.033Z,9.14
2022-11-18T11:59:16.059Z,9.16
2022-11-18T12:02:13.051Z,9.14
2022-11-18T12:05:08.960Z,9.11
2022-11-18T12:07:45.977Z,9.11
2022-11-18T12:10:34.808Z,9.10
2022-11-18T12:13:21.069Z,9.04
2022-11-18T12:16:07.629Z,9.03
2022-11-18T12:18:40.689Z,9.05
2022-11-18T12:21:08.491Z,9.09
2022-11-18T12:23:36.038Z,9.12
2022-11-18T12:26:10.661Z,9.12
2022-11-18T12:28:43.227Z,9.12
2022-11-18T12:31:20.344Z,9.09
2022-11-18T12:33:57.021Z,9.12
2022-11-18T12:36:33.233Z,9.15
2022-11-18T12:39:28.134Z,9.14
2022-11-18T12:42:21.968Z,9.14
2022-11-18T12:44:51.597Z,9.14
2022-11-18T12:47:51.493Z,9.12
2022-11-18T12:50:21.909Z,9.22
2022-11-18T12:52:50.219Z,9.24
2022-11-18T12:55:25.327Z,9.18
2022-11-18T12:57:53.341Z,9.28
2022-11-18T13:00:24.192Z,9.26
